sensor_id;sensor_type;location;lat;lon;timestamp;pressure;altitude;pressure_sealevel;temperature;humidity
34197;BME280;36594;45.192;5.722;2023-03-19T00:00:45;99150.67;;;23.82;33.59
34197;BME280;36594;45.192;5.722;2023-03-19T00:03:34;99152.88;;;23.82;33.58
34197;BME280;36594;45.192;5.722;2023-03-19T00:06:22;99148.77;;;23.82;33.58
34197;BME280;36594;45.192;5.722;2023-03-19T00:09:11;99149.56;;;23.80;33.62
34197;BME280;36594;45.192;5.722;2023-03-19T00:12:00;99155.63;;;23.82;33.60
34197;BME280;36594;45.192;5.722;2023-03-19T00:14:49;99158.11;;;23.84;33.60
34197;BME280;36594;45.192;5.722;2023-03-19T00:17:38;99158.11;;;23.84;33.63
34197;BME280;36594;45.192;5.722;2023-03-19T00:20:26;99156.20;;;23.84;33.65
34197;BME280;36594;45.192;5.722;2023-03-19T00:23:14;99157.27;;;23.83;33.72
34197;BME280;36594;45.192;5.722;2023-03-19T00:26:03;99158.19;;;23.89;33.66
34197;BME280;36594;45.192;5.722;2023-03-19T00:28:54;99168.02;;;23.85;33.75
34197;BME280;36594;45.192;5.722;2023-03-19T00:31:42;99164.97;;;23.84;33.77
34197;BME280;36594;45.192;5.722;2023-03-19T00:34:31;99163.55;;;23.81;33.84
34197;BME280;36594;45.192;5.722;2023-03-19T00:37:19;99164.92;;;23.81;33.83
34197;BME280;36594;45.192;5.722;2023-03-19T00:40:10;99169.57;;;23.81;33.88
34197;BME280;36594;45.192;5.722;2023-03-19T00:42:59;99170.67;;;23.80;33.89
34197;BME280;36594;45.192;5.722;2023-03-19T00:45:48;99167.93;;;23.80;33.85
34197;BME280;36594;45.192;5.722;2023-03-19T00:48:36;99164.92;;;23.81;33.89
34197;BME280;36594;45.192;5.722;2023-03-19T00:51:27;99169.53;;;23.78;33.93
34197;BME280;36594;45.192;5.722;2023-03-19T00:54:15;99171.20;;;23.79;33.91
34197;BME280;36594;45.192;5.722;2023-03-19T00:57:04;99175.02;;;23.78;33.95
34197;BME280;36594;45.192;5.722;2023-03-19T00:59:52;99171.16;;;23.77;33.96
34197;BME280;36594;45.192;5.722;2023-03-19T01:02:41;99171.47;;;23.78;33.94
34197;BME280;36594;45.192;5.722;2023-03-19T01:05:29;99164.84;;;23.76;33.94
34197;BME280;36594;45.192;5.722;2023-03-19T01:08:18;99176.34;;;23.76;34.01
34197;BME280;36594;45.192;5.722;2023-03-19T01:11:12;99165.36;;;23.73;33.97
34197;BME280;36594;45.192;5.722;2023-03-19T01:14:01;99172.23;;;23.76;34.03
34197;BME280;36594;45.192;5.722;2023-03-19T01:16:49;99176.95;;;23.78;33.99
34197;BME280;36594;45.192;5.722;2023-03-19T01:19:38;99175.81;;;23.76;34.01
34197;BME280;36594;45.192;5.722;2023-03-19T01:22:28;99177.27;;;23.81;33.96
34197;BME280;36594;45.192;5.722;2023-03-19T01:25:18;99183.02;;;23.80;33.96
34197;BME280;36594;45.192;5.722;2023-03-19T01:28:08;99186.55;;;23.78;34.00
34197;BME280;36594;45.192;5.722;2023-03-19T01:31:00;99182.44;;;23.78;34.02
34197;BME280;36594;45.192;5.722;2023-03-19T01:34:03;99170.90;;;23.78;34.00
34197;BME280;36594;45.192;5.722;2023-03-19T01:36:54;99167.63;;;23.79;34.04
34197;BME280;36594;45.192;5.722;2023-03-19T01:39:44;99167.97;;;23.82;33.99
34197;BME280;36594;45.192;5.722;2023-03-19T01:42:49;99166.78;;;23.78;34.02
34197;BME280;36594;45.192;5.722;2023-03-19T01:45:34;99169.34;;;23.82;33.97
34197;BME280;36594;45.192;5.722;2023-03-19T01:48:50;99166.56;;;23.80;34.00
34197;BME280;36594;45.192;5.722;2023-03-19T01:51:41;99165.76;;;23.82;34.01
34197;BME280;36594;45.192;5.722;2023-03-19T01:54:38;99163.51;;;23.79;34.06
34197;BME280;36594;45.192;5.722;2023-03-19T01:57:46;99159.44;;;23.81;33.98
34197;BME280;36594;45.192;5.722;2023-03-19T02:00:52;99157.45;;;23.77;34.06
34197;BME280;36594;45.192;5.722;2023-03-19T02:03:43;99164.56;;;23.75;34.13
34197;BME280;36594;45.192;5.722;2023-03-19T02:06:41;99160.77;;;23.79;34.10
34197;BME280;36594;45.192;5.722;2023-03-19T02:09:31;99159.35;;;23.76;34.10
34197;BME280;36594;45.192;5.722;2023-03-19T02:12:19;99161.34;;;23.81;34.05
34197;BME280;36594;45.192;5.722;2023-03-19T02:15:09;99164.92;;;23.81;34.07
34197;BME280;36594;45.192;5.722;2023-03-19T02:17:58;99166.34;;;23.84;34.06
34197;BME280;36594;45.192;5.722;2023-03-19T02:21:10;99167.13;;;23.82;34.08
34197;BME280;36594;45.192;5.722;2023-03-19T02:27:23;99163.86;;;23.82;34.01
34197;BME280;36594;45.192;5.722;2023-03-19T02:30:18;99166.21;;;23.76;34.14
34197;BME280;36594;45.192;5.722;2023-03-19T02:33:14;99167.35;;;23.78;34.09
34197;BME280;36594;45.192;5.722;2023-03-19T02:35:58;99170.37;;;23.79;34.10
34197;BME280;36594;45.192;5.722;2023-03-19T02:38:48;99169.87;;;23.82;34.08
34197;BME280;36594;45.192;5.722;2023-03-19T02:41:39;99173.45;;;23.82;34.09
34197;BME280;36594;45.192;5.722;2023-03-19T02:44:28;99175.36;;;23.82;34.09
34197;BME280;36594;45.192;5.722;2023-03-19T02:47:17;99180.31;;;23.82;34.07
34197;BME280;36594;45.192;5.722;2023-03-19T02:50:06;99183.28;;;23.81;34.10
34197;BME280;36594;45.192;5.722;2023-03-19T02:52:55;99180.55;;;23.81;34.08
34197;BME280;36594;45.192;5.722;2023-03-19T02:55:43;99180.05;;;23.84;34.07
34197;BME280;36594;45.192;5.722;2023-03-19T02:58:32;99177.84;;;23.83;34.08
34197;BME280;36594;45.192;5.722;2023-03-19T03:01:20;99178.15;;;23.84;34.11
34197;BME280;36594;45.192;5.722;2023-03-19T03:04:08;99177.80;;;23.81;34.08
34197;BME280;36594;45.192;5.722;2023-03-19T03:06:57;99179.21;;;23.83;34.09
34197;BME280;36594;45.192;5.722;2023-03-19T03:09:46;99175.14;;;23.86;34.08
34197;BME280;36594;45.192;5.722;2023-03-19T03:12:34;99168.06;;;23.90;34.02
34197;BME280;36594;45.192;5.722;2023-03-19T03:15:22;99173.50;;;23.85;34.06
34197;BME280;36594;45.192;5.722;2023-03-19T03:18:11;99174.88;;;23.85;34.04
34197;BME280;36594;45.192;5.722;2023-03-19T03:20:59;99173.50;;;23.85;34.09
34197;BME280;36594;45.192;5.722;2023-03-19T03:23:48;99171.25;;;23.82;34.07
34197;BME280;36594;45.192;5.722;2023-03-19T03:26:37;99178.11;;;23.82;34.11
34197;BME280;36594;45.192;5.722;2023-03-19T03:29:26;99181.91;;;23.81;34.15
34197;BME280;36594;45.192;5.722;2023-03-19T03:32:14;99177.53;;;23.80;34.15
34197;BME280;36594;45.192;5.722;2023-03-19T03:35:04;99182.48;;;23.80;34.20
34197;BME280;36594;45.192;5.722;2023-03-19T03:37:53;99178.98;;;23.85;34.12
34197;BME280;36594;45.192;5.722;2023-03-19T03:40:41;99170.75;;;23.85;34.14
34197;BME280;36594;45.192;5.722;2023-03-19T03:43:30;99171.56;;;23.85;34.09
34197;BME280;36594;45.192;5.722;2023-03-19T03:46:19;99174.88;;;23.85;34.08
34197;BME280;36594;45.192;5.722;2023-03-19T03:49:09;99180.89;;;23.84;34.10
34197;BME280;36594;45.192;5.722;2023-03-19T03:51:57;99182.49;;;23.83;34.17
34197;BME280;36594;45.192;5.722;2023-03-19T03:54:47;99183.59;;;23.82;34.23
34197;BME280;36594;45.192;5.722;2023-03-19T03:57:36;99184.96;;;23.82;34.15
34197;BME280;36594;45.192;5.722;2023-03-19T04:00:25;99183.33;;;23.83;34.16
34197;BME280;36594;45.192;5.722;2023-03-19T04:03:14;99184.47;;;23.85;34.13
34197;BME280;36594;45.192;5.722;2023-03-19T04:06:04;99186.95;;;23.86;34.12
34197;BME280;36594;45.192;5.722;2023-03-19T04:08:53;99193.59;;;23.90;34.02
34197;BME280;36594;45.192;5.722;2023-03-19T04:11:43;99196.81;;;23.85;34.14
34197;BME280;36594;45.192;5.722;2023-03-19T04:14:32;99203.06;;;23.83;34.15
34197;BME280;36594;45.192;5.722;2023-03-19T04:17:20;99201.51;;;23.87;34.12
34197;BME280;36594;45.192;5.722;2023-03-19T04:20:11;99198.19;;;23.85;34.12
34197;BME280;36594;45.192;5.722;2023-03-19T04:23:01;99200.09;;;23.84;34.14
34197;BME280;36594;45.192;5.722;2023-03-19T04:25:49;99199.83;;;23.86;34.09
34197;BME280;36594;45.192;5.722;2023-03-19T04:28:39;99195.48;;;23.87;34.11
34197;BME280;36594;45.192;5.722;2023-03-19T04:31:28;99200.13;;;23.87;34.14
34197;BME280;36594;45.192;5.722;2023-03-19T04:34:17;99209.16;;;23.85;34.19
34197;BME280;36594;45.192;5.722;2023-03-19T04:37:06;99199.55;;;23.85;34.14
34197;BME280;36594;45.192;5.722;2023-03-19T04:39:58;99207.79;;;23.85;34.12
34197;BME280;36594;45.192;5.722;2023-03-19T04:42:48;99208.85;;;23.84;34.20
34197;BME280;36594;45.192;5.722;2023-03-19T04:45:37;99205.84;;;23.85;34.12
34197;BME280;36594;45.192;5.722;2023-03-19T04:48:26;99205.05;;;23.85;34.18
34197;BME280;36594;45.192;5.722;2023-03-19T04:51:15;99206.06;;;23.81;34.17
34197;BME280;36594;45.192;5.722;2023-03-19T04:54:04;99213.81;;;23.84;34.18
34197;BME280;36594;45.192;5.722;2023-03-19T04:56:52;99219.03;;;23.86;34.14
34197;BME280;36594;45.192;5.722;2023-03-19T04:59:42;99221.50;;;23.85;34.14
34197;BME280;36594;45.192;5.722;2023-03-19T05:02:32;99221.50;;;23.85;34.16
34197;BME280;36594;45.192;5.722;2023-03-19T05:05:20;99225.09;;;23.88;34.15
34197;BME280;36594;45.192;5.722;2023-03-19T05:08:09;99229.78;;;23.87;34.13
34197;BME280;36594;45.192;5.722;2023-03-19T05:10:58;99228.14;;;23.89;34.07
34197;BME280;36594;45.192;5.722;2023-03-19T05:13:48;99237.25;;;23.92;34.08
34197;BME280;36594;45.192;5.722;2023-03-19T05:16:36;99233.05;;;23.87;34.11
34197;BME280;36594;45.192;5.722;2023-03-19T05:19:35;99236.59;;;23.85;34.14
34197;BME280;36594;45.192;5.722;2023-03-19T05:22:23;99239.29;;;23.82;34.19
34197;BME280;36594;45.192;5.722;2023-03-19T05:25:13;99242.88;;;23.85;34.18
34197;BME280;36594;45.192;5.722;2023-03-19T05:28:04;99245.09;;;23.86;34.16
34197;BME280;36594;45.192;5.722;2023-03-19T05:30:54;99243.19;;;23.86;34.14
34197;BME280;36594;45.192;5.722;2023-03-19T05:33:47;99242.70;;;23.89;34.11
34197;BME280;36594;45.192;5.722;2023-03-19T05:36:37;99247.61;;;23.87;34.15
34197;BME280;36594;45.192;5.722;2023-03-19T05:39:27;99245.63;;;23.85;34.14
34197;BME280;36594;45.192;5.722;2023-03-19T05:42:17;99251.46;;;23.89;34.16
34197;BME280;36594;45.192;5.722;2023-03-19T05:45:07;99257.16;;;23.85;34.16
34197;BME280;36594;45.192;5.722;2023-03-19T05:47:59;99262.34;;;23.84;34.23
34197;BME280;36594;45.192;5.722;2023-03-19T05:50:49;99268.13;;;23.85;34.24
34197;BME280;36594;45.192;5.722;2023-03-19T05:53:40;99269.83;;;23.88;34.11
34197;BME280;36594;45.192;5.722;2023-03-19T05:56:45;99275.84;;;23.88;34.13
34197;BME280;36594;45.192;5.722;2023-03-19T05:59:41;99277.13;;;23.83;34.21
34197;BME280;36594;45.192;5.722;2023-03-19T06:02:38;99291.09;;;23.81;34.24
34197;BME280;36594;45.192;5.722;2023-03-19T06:05:29;99289.28;;;23.87;34.22
34197;BME280;36594;45.192;5.722;2023-03-19T06:08:20;99296.42;;;23.88;34.12
34197;BME280;36594;45.192;5.722;2023-03-19T06:11:20;99303.00;;;23.87;34.13
34197;BME280;36594;45.192;5.722;2023-03-19T06:14:10;99303.48;;;23.84;34.23
34197;BME280;36594;45.192;5.722;2023-03-19T06:17:00;99306.81;;;23.86;34.20
34197;BME280;36594;45.192;5.722;2023-03-19T06:19:48;99315.98;;;23.91;34.12
34197;BME280;36594;45.192;5.722;2023-03-19T06:22:37;99322.83;;;23.91;34.12
34197;BME280;36594;45.192;5.722;2023-03-19T06:25:25;99325.53;;;23.89;34.12
34197;BME280;36594;45.192;5.722;2023-03-19T06:28:14;99328.27;;;23.89;34.14
34197;BME280;36594;45.192;5.722;2023-03-19T06:31:04;99329.86;;;23.85;34.20
34197;BME280;36594;45.192;5.722;2023-03-19T06:34:10;99330.13;;;23.86;34.22
34197;BME280;36594;45.192;5.722;2023-03-19T06:37:00;99338.57;;;23.82;34.31
34197;BME280;36594;45.192;5.722;2023-03-19T06:39:49;99339.45;;;23.85;34.29
34197;BME280;36594;45.192;5.722;2023-03-19T06:42:37;99347.91;;;23.83;34.29
34197;BME280;36594;45.192;5.722;2023-03-19T06:45:26;99351.49;;;23.84;34.23
34197;BME280;36594;45.192;5.722;2023-03-19T06:48:14;99354.82;;;23.86;34.25
34197;BME280;36594;45.192;5.722;2023-03-19T06:51:04;99355.35;;;23.85;34.27
34197;BME280;36594;45.192;5.722;2023-03-19T06:53:53;99350.17;;;23.86;34.23
34197;BME280;36594;45.192;5.722;2023-03-19T06:56:42;99357.12;;;23.91;34.17
34197;BME280;36594;45.192;5.722;2023-03-19T06:59:31;99358.14;;;23.88;34.22
34197;BME280;36594;45.192;5.722;2023-03-19T07:02:20;99356.50;;;23.87;34.20
34197;BME280;36594;45.192;5.722;2023-03-19T07:05:09;99359.52;;;23.88;34.20
34197;BME280;36594;45.192;5.722;2023-03-19T07:07:58;99364.83;;;23.92;34.19
34197;BME280;36594;45.192;5.722;2023-03-19T07:10:46;99374.60;;;23.88;34.20
34197;BME280;36594;45.192;5.722;2023-03-19T07:13:35;99374.02;;;23.86;34.25
34197;BME280;36594;45.192;5.722;2023-03-19T07:16:24;99371.33;;;23.88;34.27
34197;BME280;36594;45.192;5.722;2023-03-19T07:19:12;99375.44;;;23.88;34.24
34197;BME280;36594;45.192;5.722;2023-03-19T07:22:01;99377.34;;;23.88;34.23
34197;BME280;36594;45.192;5.722;2023-03-19T07:24:50;99388.58;;;23.86;34.26
34197;BME280;36594;45.192;5.722;2023-03-19T07:27:38;99385.52;;;23.85;34.24
34197;BME280;36594;45.192;5.722;2023-03-19T07:30:27;99388.84;;;23.85;34.26
34197;BME280;36594;45.192;5.722;2023-03-19T07:33:15;99394.02;;;23.84;34.26
34197;BME280;36594;45.192;5.722;2023-03-19T07:36:04;99395.97;;;23.86;34.29
34197;BME280;36594;45.192;5.722;2023-03-19T07:38:53;99403.41;;;23.88;34.26
34197;BME280;36594;45.192;5.722;2023-03-19T07:41:41;99411.64;;;23.88;34.22
34197;BME280;36594;45.192;5.722;2023-03-19T07:44:33;99414.97;;;23.90;34.24
34197;BME280;36594;45.192;5.722;2023-03-19T07:47:21;99414.44;;;23.90;34.22
34197;BME280;36594;45.192;5.722;2023-03-19T07:50:11;99418.86;;;23.91;34.21
34197;BME280;36594;45.192;5.722;2023-03-19T07:52:59;99421.83;;;23.90;34.22
34197;BME280;36594;45.192;5.722;2023-03-19T07:55:47;99426.45;;;23.87;34.26
34197;BME280;36594;45.192;5.722;2023-03-19T07:58:36;99429.78;;;23.89;34.22
34197;BME280;36594;45.192;5.722;2023-03-19T08:01:25;99425.72;;;23.91;34.21
34197;BME280;36594;45.192;5.722;2023-03-19T08:04:14;99427.83;;;23.87;34.26
34197;BME280;36594;45.192;5.722;2023-03-19T08:07:02;99429.67;;;23.84;34.31
34197;BME280;36594;45.192;5.722;2023-03-19T08:09:51;99431.41;;;23.87;34.28
34197;BME280;36594;45.192;5.722;2023-03-19T08:12:39;99432.22;;;23.88;34.35
34197;BME280;36594;45.192;5.722;2023-03-19T08:15:27;99430.31;;;23.88;34.30
34197;BME280;36594;45.192;5.722;2023-03-19T08:18:16;99432.73;;;23.85;34.33
34197;BME280;36594;45.192;5.722;2023-03-19T08:21:05;99435.54;;;23.90;34.29
34197;BME280;36594;45.192;5.722;2023-03-19T08:23:53;99435.54;;;23.90;34.29
34197;BME280;36594;45.192;5.722;2023-03-19T08:26:42;99432.47;;;23.86;34.32
34197;BME280;36594;45.192;5.722;2023-03-19T08:29:30;99436.33;;;23.88;34.40
34197;BME280;36594;45.192;5.722;2023-03-19T08:32:19;99440.27;;;23.92;34.42
34197;BME280;36594;45.192;5.722;2023-03-19T08:35:08;99433.74;;;23.95;34.29
34197;BME280;36594;45.192;5.722;2023-03-19T08:37:57;99433.00;;;24.00;34.22
34197;BME280;36594;45.192;5.722;2023-03-19T08:40:46;99436.28;;;23.99;34.28
34197;BME280;36594;45.192;5.722;2023-03-19T08:43:36;99439.08;;;24.02;34.25
34197;BME280;36594;45.192;5.722;2023-03-19T08:46:25;99438.02;;;24.03;34.23
34197;BME280;36594;45.192;5.722;2023-03-19T08:49:14;99434.96;;;24.02;34.20
34197;BME280;36594;45.192;5.722;2023-03-19T08:52:03;99431.69;;;24.02;34.24
34197;BME280;36594;45.192;5.722;2023-03-19T08:54:52;99442.61;;;24.00;34.25
34197;BME280;36594;45.192;5.722;2023-03-19T08:57:40;99447.82;;;23.99;34.28
34197;BME280;36594;45.192;5.722;2023-03-19T09:00:29;99453.89;;;24.01;34.29
34197;BME280;36594;45.192;5.722;2023-03-19T09:03:19;99455.48;;;23.99;34.30
34197;BME280;36594;45.192;5.722;2023-03-19T09:06:10;99454.42;;;24.00;34.32
34197;BME280;36594;45.192;5.722;2023-03-19T09:09:00;99450.79;;;23.97;34.32
34197;BME280;36594;45.192;5.722;2023-03-19T09:11:49;99459.08;;;24.00;34.33
34197;BME280;36594;45.192;5.722;2023-03-19T09:14:37;99459.61;;;23.99;34.32
34197;BME280;36594;45.192;5.722;2023-03-19T09:17:26;99454.63;;;23.96;34.35
34197;BME280;36594;45.192;5.722;2023-03-19T09:20:15;99461.23;;;23.98;34.36
34197;BME280;36594;45.192;5.722;2023-03-19T09:23:03;99465.09;;;23.99;34.32
34197;BME280;36594;45.192;5.722;2023-03-19T09:25:52;99465.09;;;23.99;34.40
34197;BME280;36594;45.192;5.722;2023-03-19T09:28:41;99465.09;;;23.99;34.38
34197;BME280;36594;45.192;5.722;2023-03-19T09:31:29;99461.23;;;23.98;34.18
34197;BME280;36594;45.192;5.722;2023-03-19T09:34:17;99461.54;;;23.99;34.15
34197;BME280;36594;45.192;5.722;2023-03-19T09:37:06;99465.04;;;23.97;34.06
34197;BME280;36594;45.192;5.722;2023-03-19T09:39:54;99457.27;;;23.91;34.01
34197;BME280;36594;45.192;5.722;2023-03-19T09:45:45;99462.24;;;23.94;34.12
34197;BME280;36594;45.192;5.722;2023-03-19T09:48:39;99464.77;;;23.96;34.12
34197;BME280;36594;45.192;5.722;2023-03-19T09:51:32;99462.80;;;23.94;34.14
34197;BME280;36594;45.192;5.722;2023-03-19T09:54:27;99458.91;;;23.92;34.20
34197;BME280;36594;45.192;5.722;2023-03-19T09:57:15;99456.42;;;23.91;34.24
34197;BME280;36594;45.192;5.722;2023-03-19T10:00:22;99447.61;;;23.89;34.20
34197;BME280;36594;45.192;5.722;2023-03-19T10:03:33;99445.50;;;23.93;34.25
34197;BME280;36594;45.192;5.722;2023-03-19T10:06:29;99448.25;;;23.93;34.25
34197;BME280;36594;45.192;5.722;2023-03-19T10:09:27;99447.16;;;23.94;34.26
34197;BME280;36594;45.192;5.722;2023-03-19T10:15:28;99448.50;;;23.92;34.38
34197;BME280;36594;45.192;5.722;2023-03-19T10:18:21;99448.78;;;23.93;34.40
34197;BME280;36594;45.192;5.722;2023-03-19T10:21:16;99449.95;;;23.97;34.37
34197;BME280;36594;45.192;5.722;2023-03-19T10:24:08;99443.40;;;23.98;34.33
34197;BME280;36594;45.192;5.722;2023-03-19T10:27:06;99449.67;;;23.96;34.39
34197;BME280;36594;45.192;5.722;2023-03-19T10:29:51;99449.47;;;24.00;34.37
34197;BME280;36594;45.192;5.722;2023-03-19T10:32:45;99448.68;;;24.02;34.33
34197;BME280;36594;45.192;5.722;2023-03-19T10:35:40;99441.49;;;23.98;34.33
34197;BME280;36594;45.192;5.722;2023-03-19T10:38:26;99440.39;;;23.99;34.38
34197;BME280;36594;45.192;5.722;2023-03-19T10:41:37;99434.42;;;24.02;34.37
34197;BME280;36594;45.192;5.722;2023-03-19T10:44:49;99438.49;;;24.00;34.36
34197;BME280;36594;45.192;5.722;2023-03-19T10:47:40;99434.96;;;24.02;34.28
34197;BME280;36594;45.192;5.722;2023-03-19T10:53:38;99431.10;;;24.00;34.36
34197;BME280;36594;45.192;5.722;2023-03-19T10:56:32;99433.00;;;24.00;34.37
34197;BME280;36594;45.192;5.722;2023-03-19T10:59:36;99431.99;;;24.03;34.22
34197;BME280;36594;45.192;5.722;2023-03-19T11:02:18;99429.25;;;24.03;34.27
34197;BME280;36594;45.192;5.722;2023-03-19T11:08:04;99430.26;;;24.00;34.41
34197;BME280;36594;45.192;5.722;2023-03-19T11:10:54;99426.98;;;24.00;34.30
34197;BME280;36594;45.192;5.722;2023-03-19T11:13:45;99427.26;;;24.01;34.16
34197;BME280;36594;45.192;5.722;2023-03-19T11:16:54;99433.27;;;23.98;34.04
34197;BME280;36594;45.192;5.722;2023-03-19T11:19:49;99415.91;;;23.95;33.83
34197;BME280;36594;45.192;5.722;2023-03-19T11:22:39;99414.23;;;23.94;33.84
34197;BME280;36594;45.192;5.722;2023-03-19T11:25:34;99412.58;;;23.93;33.73
34197;BME280;36594;45.192;5.722;2023-03-19T11:28:24;99411.48;;;23.94;33.76
34197;BME280;36594;45.192;5.722;2023-03-19T11:43:49;99396.17;;;23.96;34.06
34197;BME280;36594;45.192;5.722;2023-03-19T11:53:00;99388.91;;;23.90;34.22
34197;BME280;36594;45.192;5.722;2023-03-19T11:59:31;99387.15;;;23.98;34.11
34197;BME280;36594;45.192;5.722;2023-03-19T12:05:23;99375.28;;;23.95;34.28
34197;BME280;36594;45.192;5.722;2023-03-19T12:08:20;99376.97;;;23.96;34.20
34197;BME280;36594;45.192;5.722;2023-03-19T12:11:22;99367.45;;;24.01;34.17
34197;BME280;36594;45.192;5.722;2023-03-19T12:14:48;99366.09;;;24.01;34.21
34197;BME280;36594;45.192;5.722;2023-03-19T12:17:57;99362.25;;;24.02;34.23
34197;BME280;36594;45.192;5.722;2023-03-19T12:24:23;99357.27;;;23.99;34.65
34197;BME280;36594;45.192;5.722;2023-03-19T12:27:29;99353.92;;;23.97;34.83
34197;BME280;36594;45.192;5.722;2023-03-19T12:30:38;99352.55;;;23.97;35.06
34197;BME280;36594;45.192;5.722;2023-03-19T12:36:54;99351.97;;;23.95;35.14
34197;BME280;36594;45.192;5.722;2023-03-19T12:40:23;99345.89;;;23.93;35.10
34197;BME280;36594;45.192;5.722;2023-03-19T12:43:20;99350.31;;;23.94;35.15
34197;BME280;36594;45.192;5.722;2023-03-19T12:46:13;99349.48;;;23.93;35.26
34197;BME280;36594;45.192;5.722;2023-03-19T12:52:25;99338.60;;;23.98;35.35
34197;BME280;36594;45.192;5.722;2023-03-19T12:58:13;99340.83;;;24.01;35.31
34197;BME280;36594;45.192;5.722;2023-03-19T13:01:06;99338.13;;;24.04;35.28
34197;BME280;36594;45.192;5.722;2023-03-19T13:04:10;99335.39;;;24.04;35.29
34197;BME280;36594;45.192;5.722;2023-03-19T13:07:07;99334.66;;;24.06;35.25
34197;BME280;36594;45.192;5.722;2023-03-19T13:10:12;99330.20;;;24.05;35.35
34197;BME280;36594;45.192;5.722;2023-03-19T13:13:03;99330.81;;;24.07;35.26
34197;BME280;36594;45.192;5.722;2023-03-19T13:15:53;99324.27;;;24.08;35.30
34197;BME280;36594;45.192;5.722;2023-03-19T13:18:54;99323.70;;;24.09;35.29
34197;BME280;36594;45.192;5.722;2023-03-19T13:21:41;99314.93;;;24.09;35.25
34197;BME280;36594;45.192;5.722;2023-03-19T13:24:38;99315.23;;;24.10;35.25
34197;BME280;36594;45.192;5.722;2023-03-19T13:27:34;99307.23;;;24.09;35.14
34197;BME280;36594;45.192;5.722;2023-03-19T13:30:24;99310.55;;;24.08;35.08
34197;BME280;36594;45.192;5.722;2023-03-19T13:33:17;99303.68;;;24.08;35.14
34197;BME280;36594;45.192;5.722;2023-03-19T13:36:09;99306.42;;;24.08;35.19
34197;BME280;36594;45.192;5.722;2023-03-19T13:38:58;99302.89;;;24.10;35.19
34197;BME280;36594;45.192;5.722;2023-03-19T13:41:50;99300.72;;;24.12;35.15
34197;BME280;36594;45.192;5.722;2023-03-19T13:44:54;99292.48;;;24.12;35.16
34197;BME280;36594;45.192;5.722;2023-03-19T13:47:43;99291.95;;;24.13;35.15
34197;BME280;36594;45.192;5.722;2023-03-19T13:50:48;99285.89;;;24.11;35.21
34197;BME280;36594;45.192;5.722;2023-03-19T13:56:20;99280.14;;;24.12;35.18
34197;BME280;36594;45.192;5.722;2023-03-19T13:59:21;99276.33;;;24.13;35.17
34197;BME280;36594;45.192;5.722;2023-03-19T14:05:18;99264.25;;;24.14;35.11
34197;BME280;36594;45.192;5.722;2023-03-19T14:08:17;99260.44;;;24.15;35.14
34197;BME280;36594;45.192;5.722;2023-03-19T14:11:04;99258.48;;;24.13;35.13
34197;BME280;36594;45.192;5.722;2023-03-19T14:13:55;99254.06;;;24.12;35.12
34197;BME280;36594;45.192;5.722;2023-03-19T14:16:45;99258.76;;;24.14;35.17
34197;BME280;36594;45.192;5.722;2023-03-19T14:19:39;99256.02;;;24.14;35.18
34197;BME280;36594;45.192;5.722;2023-03-19T14:22:36;99254.37;;;24.13;35.17
34197;BME280;36594;45.192;5.722;2023-03-19T14:25:26;99248.09;;;24.15;35.17
34197;BME280;36594;45.192;5.722;2023-03-19T14:28:44;99240.09;;;24.14;35.18
34197;BME280;36594;45.192;5.722;2023-03-19T14:31:52;99242.56;;;24.13;35.15
34197;BME280;36594;45.192;5.722;2023-03-19T14:34:43;99236.98;;;24.08;35.27
34197;BME280;36594;45.192;5.722;2023-03-19T14:37:41;99240.84;;;24.09;35.28
34197;BME280;36594;45.192;5.722;2023-03-19T14:40:35;99240.34;;;24.12;35.21
34197;BME280;36594;45.192;5.722;2023-03-19T14:43:55;99234.55;;;24.11;35.24
34197;BME280;36594;45.192;5.722;2023-03-19T14:56:04;99220.26;;;24.09;35.26
34197;BME280;36594;45.192;5.722;2023-03-19T14:59:09;99211.75;;;24.08;35.27
34197;BME280;36594;45.192;5.722;2023-03-19T15:02:00;99217.33;;;24.13;35.17
34197;BME280;36594;45.192;5.722;2023-03-19T15:04:49;99211.84;;;24.13;35.23
34197;BME280;36594;45.192;5.722;2023-03-19T15:07:43;99208.56;;;24.16;35.24
34197;BME280;36594;45.192;5.722;2023-03-19T15:10:50;99203.95;;;24.19;35.14
34197;BME280;36594;45.192;5.722;2023-03-19T15:14:19;99206.16;;;24.20;35.16
34197;BME280;36594;45.192;5.722;2023-03-19T15:17:29;99204.75;;;24.17;35.17
34197;BME280;36594;45.192;5.722;2023-03-19T15:20:20;99205.25;;;24.14;35.22
34197;BME280;36594;45.192;5.722;2023-03-19T15:23:28;99198.16;;;24.18;35.22
34197;BME280;36594;45.192;5.722;2023-03-19T15:26:34;99197.36;;;24.20;35.14
34197;BME280;36594;45.192;5.722;2023-03-19T15:29:33;99198.73;;;24.20;33.79
34197;BME280;36594;45.192;5.722;2023-03-19T15:32:58;99199.10;;;24.07;32.38
34197;BME280;36594;45.192;5.722;2023-03-19T15:35:47;99201.69;;;23.83;31.94
34197;BME280;36594;45.192;5.722;2023-03-19T15:38:45;99203.01;;;23.78;31.72
34197;BME280;36594;45.192;5.722;2023-03-19T15:41:35;99203.37;;;23.84;31.92
34197;BME280;36594;45.192;5.722;2023-03-19T15:44:30;99203.15;;;23.88;32.06
34197;BME280;36594;45.192;5.722;2023-03-19T15:47:20;99203.23;;;23.93;32.23
34197;BME280;36594;45.192;5.722;2023-03-19T15:50:14;99200.75;;;23.91;32.34
34197;BME280;36594;45.192;5.722;2023-03-19T15:53:09;99203.02;;;23.97;32.93
34197;BME280;36594;45.192;5.722;2023-03-19T15:55:59;99196.46;;;23.98;32.87
34197;BME280;36594;45.192;5.722;2023-03-19T15:58:50;99195.13;;;24.00;33.11
34197;BME280;36594;45.192;5.722;2023-03-19T16:01:40;99195.17;;;24.03;33.15
34197;BME280;36594;45.192;5.722;2023-03-19T16:04:30;99197.30;;;23.98;33.07
34197;BME280;36594;45.192;5.722;2023-03-19T16:07:24;99196.77;;;24.01;33.17
34197;BME280;36594;45.192;5.722;2023-03-19T16:10:33;99200.36;;;24.02;33.18
34197;BME280;36594;45.192;5.722;2023-03-19T16:16:20;99189.34;;;23.99;33.26
34197;BME280;36594;45.192;5.722;2023-03-19T16:19:46;99192.65;;;23.99;33.41
34197;BME280;36594;45.192;5.722;2023-03-19T16:22:30;99196.02;;;24.03;33.49
34197;BME280;36594;45.192;5.722;2023-03-19T16:25:19;99194.30;;;24.00;33.62